Flight Track Log - Related Links

Times and Time Zones

All times are in EDT time to prevent confusion due to time zone crossing. See the AAY855 flight status page for this flight to view local times or setup timezone preferences in your user account.

Time Position Orientation Groundspeed Altitude Reporting Facility
EDT Latitude Longitude Course Direction KTS MPH feet Rate Location/Type
Sat 08:09:15 PM 41.6475 -86.3728 131° Southeast 230 265 4,300  Level Chicago Center
Sat 08:10:16 PM 41.6094 -86.2933 123° Southeast 256 295 6,700 2,390 Climbing Chicago Center
Sat 08:11:18 PM 41.5586 -86.2067 128° Southeast 292 336 9,200 2,098 Climbing Chicago Center
Sat 08:12:19 PM 41.4775 -86.1728 163° South 307 353 11,000 1,707 Climbing Chicago Center
Sat 08:13:21 PM 41.3819 -86.1314 162° South 357 411 12,700 2,098 Climbing Chicago Center
Sat 08:14:00 PM 41.2637 -85.6261 131° Southeast  Level FlightAware Approximate
Sat 08:14:22 PM 41.2628 -86.0778 161° South 376 433 15,300  Level Chicago Center
Sat 08:15:23 PM 41.1614 -86.0339 162° South 382 440 17,200 1,707 Climbing Chicago Center
Sat 08:16:25 PM 41.0533 -85.9978 166° South 401 461 18,800 1,610 Climbing Chicago Center
Sat 08:17:26 PM 40.9414 -85.9669 168° South 408 470 20,500 1,574 Climbing Chicago Center
Sat 08:18:27 PM 40.8264 -85.9331 167° South 418 481 22,000 1,463 Climbing Chicago Center
Sat 08:19:29 PM 40.7092 -85.8967 167° South 429 494 23,500 1,415 Climbing Chicago Center
Sat 08:20:30 PM 40.5808 -85.8403 162° South 446 513 24,900 1,415 Climbing Chicago Center
Sat 08:21:32 PM 40.4586 -85.8083 169° South 448 516 26,400 1,463 Climbing Chicago Center
Sat 08:22:33 PM 40.3356 -85.7886 173° South 446 513 27,900 1,173 Climbing Chicago Center
Sat 08:23:45 PM 40.1892 -85.7633 172° South 442 509 29,000 496 Climbing Indianapolis Center
Sat 08:24:46 PM 40.0675 -85.7431 173° South 442 509 29,000  Level Indianapolis Center
Sat 08:25:47 PM 39.9475 -85.7242 173° South 437 503 29,000  Level Indianapolis Center
Sat 08:31:48 PM 39.2009 -85.6045 173° South 439 505 29,000 10 Level FlightAware ADS-B (KCVG)
Sat 08:35:36 PM 38.7405 -85.5320 173° South 441 507 29,100  Climbing FlightAware ADS-B (KCVG)
Sat 08:36:11 PM 38.6681 -85.5206 173° South 440 506 29,000 -64 Descending FlightAware ADS-B
Sat 08:37:10 PM 38.5494 -85.5020 173° South 438 504 29,000  Level FlightAware ADS-B
Sat 08:38:13 PM 38.4241 -85.4825 173° South 438 504 29,000  Level FlightAware ADS-B
Sat 08:39:11 PM 38.3047 -85.4639 173° South 438 504 29,000  Level FlightAware ADS-B
Sat 08:39:49 PM 38.2285 -85.4521 173° South 439 505 29,000  Level FlightAware ADS-B
Sat 08:40:20 PM 38.1679 -85.4427 173° South 439 505 29,000  Level FlightAware ADS-B
Sat 08:41:05 PM 38.0771 -85.4287 173° South 440 506 29,000  Level FlightAware ADS-B
Sat 08:41:50 PM 37.9858 -85.4147 173° South 441 507 29,000  Level FlightAware ADS-B
Sat 08:42:34 PM 37.9128 -85.4036 173° South 442 509 29,000  Level FlightAware ADS-B
Sat 08:43:05 PM 37.8338 -85.3916 173° South 443 510 29,000 80 Level FlightAware ADS-B
Sat 08:43:49 PM 37.7408 -85.3774 173° South 442 509 29,100 81 Climbing FlightAware ADS-B
Sat 08:44:19 PM 37.6803 -85.3681 173° South 441 507 29,100 -100 Level FlightAware ADS-B
Sat 08:44:49 PM 37.6196 -85.3588 173° South 440 506 29,000 -100 Descending FlightAware ADS-B
Sat 08:45:19 PM 37.5586 -85.3494 173° South 439 505 29,000  Level FlightAware ADS-B
Sat 08:45:50 PM 37.5013 -85.3408 173° South 437 503 29,000  Level FlightAware ADS-B
Sat 08:46:20 PM 37.4433 -85.3321 173° South 435 501 29,000  Level FlightAware ADS-B
Sat 08:47:05 PM 37.3480 -85.3177 173° South 434 499 29,000  Level FlightAware ADS-B
Sat 08:47:35 PM 37.2879 -85.3087 173° South 434 499 29,000  Level FlightAware ADS-B
Sat 08:48:13 PM 37.2115 -85.2972 173° South 432 497 29,000  Level FlightAware ADS-B
Sat 08:49:04 PM 37.1201 -85.2835 173° South 432 497 29,000  Level FlightAware ADS-B
Sat 08:49:34 PM 37.0503 -85.2729 173° South 431 496 29,000  Level FlightAware ADS-B
Sat 08:50:09 PM 36.9807 -85.2626 173° South 430 495 29,000  Level FlightAware ADS-B
Sat 08:50:49 PM 36.9067 -85.2516 173° South 430 495 29,000  Level FlightAware ADS-B
Sat 08:51:19 PM 36.8931 -85.2496 173° South 431 496 29,000  Level FlightAware ADS-B
Sat 08:52:13 PM 36.7355 -85.2261 173° South 430 495 29,000  Level FlightAware ADS-B
Sat 08:53:13 PM 36.6167 -85.2084 173° South 429 494 29,000  Level FlightAware ADS-B
Sat 08:54:13 PM 36.4980 -85.1908 173° South 430 495 29,000  Level FlightAware ADS-B
Sat 08:55:01 PM 36.4021 -85.1768 173° South 431 496 29,000  Level FlightAware ADS-B (KMDQ)
Sat 08:55:31 PM 36.3430 -85.1681 173° South 431 496 29,000  Level FlightAware ADS-B
Sat 08:56:11 PM 36.2646 -85.1566 173° South 431 496 29,000  Level FlightAware ADS-B (KMDQ)
Sat 08:56:51 PM 36.1848 -85.1449 173° South 432 497 29,000  Level FlightAware ADS-B (KMDQ)
Sat 08:57:30 PM 36.1059 -85.1333 173° South 433 498 29,000  Level FlightAware ADS-B (KMDQ)
Sat 08:58:22 PM 36.0082 -85.1191 173° South 432 497 29,000  Level FlightAware ADS-B (KMDQ)
Sat 08:59:03 PM 35.9213 -85.1064 173° South 432 497 29,000  Level FlightAware ADS-B (KMDQ)
Sat 08:59:40 PM 35.8475 -85.0957 173° South 433 498 29,000  Level FlightAware ADS-B (KMDQ)
Sat 09:00:12 PM 35.7998 -85.0888 173° South 433 498 29,000  Level FlightAware ADS-B (KMDQ)
Sat 09:00:52 PM 35.7074 -85.0755 173° South 433 498 29,000  Level FlightAware ADS-B (KMDQ)
Sat 09:01:31 PM 35.6277 -85.0639 173° South 433 498 29,000  Level FlightAware ADS-B (KMDQ)
Sat 09:02:09 PM 35.5641 -85.0547 173° South 432 497 29,000  Level FlightAware ADS-B (KMDQ)
Sat 09:02:52 PM 35.4691 -85.0411 173° South 432 497 29,000  Level FlightAware ADS-B (KMDQ)
Sat 09:03:28 PM 35.3955 -85.0306 173° South 432 497 29,000  Level FlightAware ADS-B (KMDQ)
Sat 09:04:11 PM 35.3101 -85.0183 173° South 432 497 29,000  Level FlightAware ADS-B (KMDQ)
Sat 09:04:51 PM 35.2338 -85.0075 173° South 432 497 29,000 75 Level FlightAware ADS-B (KMDQ)
Sat 09:05:31 PM 35.1508 -84.9955 173° South 429 494 29,100  Climbing FlightAware ADS-B (KMDQ)
Sat 09:06:11 PM 35.0751 -84.9847 173° South 428 493 29,000 -43 Descending FlightAware ADS-B (KMDQ)
Sat 09:07:52 PM 34.8738 -84.9562 173° South 426 490 29,000  Level FlightAware ADS-B (KMDQ)
Sat 09:08:27 PM 34.8037 -84.9462 173° South 419 482 29,000  Level FlightAware ADS-B (KDZJ)
Sat 09:09:05 PM 34.7282 -84.9355 173° South 419 482 29,000  Level FlightAware ADS-B (KDZJ)
Sat 09:09:46 PM 34.6468 -84.9240 173° South 419 482 29,000 79 Level FlightAware ADS-B (KDZJ)
Sat 09:10:21 PM 34.5788 -84.9145 174° South 425 489 29,100  Climbing FlightAware ADS-B (KDZJ)
Sat 09:11:04 PM 34.4948 -84.9026 173° South 425 489 29,000 -71 Descending FlightAware ADS-B (KDZJ)
Sat 09:11:45 PM 34.4148 -84.8913 173° South 425 489 29,000  Level FlightAware ADS-B (KDZJ)
Sat 09:12:24 PM 34.3388 -84.8807 173° South 424 488 29,000  Level FlightAware ADS-B (KDZJ)
Sat 09:14:02 PM 34.1467 -84.8539 173° South 418 481 29,000  Level FlightAware ADS-B (KDZJ)
Sat 09:14:47 PM 34.0580 -84.8416 173° South 420 483 29,000  Level FlightAware ADS-B (KDZJ)
Sat 09:15:26 PM 33.9829 -84.8312 173° South 420 483 29,000  Level FlightAware ADS-B (KDZJ)
Sat 09:15:59 PM 33.9164 -84.8220 173° South 420 483 29,000  Level FlightAware ADS-B (KDZJ)
Sat 09:17:17 PM 33.7814 -84.8061 173° South 425 489 29,000  Level Atlanta Center
Sat 09:18:17 PM 33.6647 -84.7875 172° South 425 489 29,000  Level Atlanta Center
Sat 09:19:17 PM 33.5436 -84.7742 175° South 425 489 29,000  Level Atlanta Center
Sat 09:20:17 PM 33.4247 -84.7556 173° South 425 489 29,000  Level Atlanta Center
Sat 09:21:17 PM 33.3081 -84.7422 175° South 425 489 29,000  Level Atlanta Center
Sat 09:22:17 PM 33.1911 -84.7264 174° South 425 489 29,000  Level Atlanta Center
Sat 09:23:17 PM 33.0744 -84.7106 174° South 425 489 29,000  Level Atlanta Center
Sat 09:24:17 PM 32.9556 -84.6925 173° South 425 489 29,000  Level Atlanta Center
Sat 09:25:17 PM 32.8386 -84.6792 175° South 425 489 29,000  Level Atlanta Center
Sat 09:26:17 PM 32.7197 -84.6636 174° South 425 489 29,000  Level Atlanta Center
Sat 09:27:17 PM 32.6031 -84.6453 172° South 425 489 29,000  Level Atlanta Center
Sat 09:28:17 PM 32.4861 -84.6297 174° South 425 489 29,000  Level Atlanta Center
Sat 09:30:27 PM 32.2281 -84.5944 173° South 425 489 29,000  Level Jacksonville Center
Sat 09:31:27 PM 32.1072 -84.5775 173° South 425 489 29,000  Level Jacksonville Center
Sat 09:32:27 PM 31.9906 -84.5631 174° South 425 489 29,000  Level Jacksonville Center
Sat 09:37:55 PM 31.3398 -84.4223 159° South 430 495 29,000  Level FlightAware ADS-B (KONZ)
Sat 09:39:35 PM 31.1522 -84.3396 159° South 430 495 29,000  Level FlightAware ADS-B (KONZ)
Sat 09:40:21 PM 31.0674 -84.3025 159° South 427 491 29,000  Level FlightAware ADS-B (KONZ)
Sat 09:41:26 PM 30.9471 -84.2498 160° South 426 490 29,000  Level FlightAware ADS-B (KONZ)
Sat 09:42:14 PM 30.8580 -84.2109 159° South 426 490 29,000  Level FlightAware ADS-B (KONZ)
Sat 09:42:44 PM 30.8028 -84.1868 159° South 425 489 29,000  Level FlightAware ADS-B (KONZ)
Sat 09:43:15 PM 30.7445 -84.1615 160° South 426 490 29,000  Level FlightAware ADS-B (KONZ)
Sat 09:43:45 PM 30.6887 -84.1373 160° South 426 490 29,000  Level FlightAware ADS-B (KONZ)
Sat 09:44:15 PM 30.6331 -84.1132 159° South 426 490 29,000  Level FlightAware ADS-B (KONZ)
Sat 09:44:45 PM 30.5775 -84.0890 159° South 427 491 29,000  Level FlightAware ADS-B (KONZ)
Sat 09:45:16 PM 30.5214 -84.0647 159° South 427 491 29,000  Level FlightAware ADS-B (KONZ)
Sat 09:45:55 PM 30.4487 -84.0333 159° South 427 491 29,000  Level FlightAware ADS-B (KONZ)
Sat 09:46:35 PM 30.3738 -84.0009 160° South 427 491 29,000  Level FlightAware ADS-B (KONZ)
Sat 09:47:06 PM 30.3171 -83.9764 160° South 426 490 29,000  Level FlightAware ADS-B (KONZ)
Sat 09:47:43 PM 30.2488 -83.9471 160° South 427 491 29,000  Level FlightAware ADS-B (KONZ)
Sat 09:48:15 PM 30.1891 -83.9214 160° South 428 493 29,000  Level FlightAware ADS-B (KONZ)
Sat 09:48:48 PM 30.1264 -83.8945 160° South 428 493 29,000  Level FlightAware ADS-B (KONZ)
Sat 09:49:28 PM 30.0539 -83.8634 160° South 428 493 29,000  Level FlightAware ADS-B (KONZ)
Sat 09:50:04 PM 29.9932 -83.8375 160° South 427 491 29,000  Level FlightAware ADS-B (KONZ)
Sat 09:51:27 PM 29.8356 -83.7714 160° South 430 495 29,000  Level Jacksonville Center
Sat 09:52:27 PM 29.7253 -83.7247 160° South 425 489 29,000  Level Jacksonville Center
Sat 09:53:27 PM 29.6147 -83.6786 160° South 425 489 29,000 -50 Level Jacksonville Center
Sat 09:54:27 PM 29.5022 -83.6322 160° South 425 489 28,900 -50 Descending Jacksonville Center
Sat 09:55:27 PM 29.3942 -83.5861 160° South 425 489 28,900 -450 Level Jacksonville Center
Sat 09:56:27 PM 29.2858 -83.5403 160° South 425 489 28,000 -1,200 Descending Jacksonville Center
Sat 09:57:27 PM 29.1817 -83.4894 157° South 425 489 26,500 -1,650 Descending Jacksonville Center
Sat 09:58:27 PM 29.0858 -83.4247 149° Southeast 412 474 24,700 -1,750 Descending Jacksonville Center
Sat 09:59:27 PM 28.9881 -83.3625 151° Southeast 405 466 23,000 -1,750 Descending Jacksonville Center
Sat 10:00:27 PM 28.8922 -83.3028 151° Southeast 400 460 21,200 -1,700 Descending Jacksonville Center
Sat 10:01:27 PM 28.8006 -83.2433 150° Southeast 389 448 19,600 -1,690 Descending Jacksonville Center
Sat 10:03:21 PM 28.6333 -83.1333 150° Southeast 366 421 16,300 -1,685 Descending Tampa TRACON
Sat 10:03:53 PM 28.5956 -83.1133 155° Southeast 364 419 15,500 -1,613 Descending Miami Center
Sat 10:04:54 PM 28.5103 -83.0558 149° Southeast 360 414 13,800 -1,426 Descending Miami Center
Sat 10:05:55 PM 28.4275 -83.0042 151° Southeast 348 400 12,600 -1,500 Descending Miami Center
Sat 10:06:54 PM 28.3553 -82.9544 149° Southeast 318 366 10,800 -2,000 Descending Miami Center
Sat 10:07:55 PM 28.2850 -82.9089 150° Southeast 296 341 8,600 -2,016 Descending Miami Center
Sat 10:08:56 PM 28.2161 -82.8658 151° Southeast 289 333 6,700 -1,721 Descending Miami Center
Sat 10:09:57 PM 28.1514 -82.8192 148° Southeast 282 325 5,100 -1,846 Descending Miami Center
Sat 10:10:27 PM 28.1000 -82.7833 148° Southeast 267 307 3,900 -1,800 Descending Tampa TRACON
Sat 10:11:27 PM 28.0500 -82.7500 150° Southeast 250 288 2,400 -1,158 Descending Tampa TRACON
Sat 10:12:21 PM 28.0000 -82.7167 150° Southeast 211 243 1,700 -850 Descending Tampa TRACON
Sat 10:13:27 PM 27.9500 -82.7000 164° South 154 177 700 -556 Descending Tampa TRACON
Sat 10:15:03 PM 27.8922 -82.6858 168° South 159 183 200 -313 Descending Miami Center

Login

Don't have an account? Register now (free) for customized features, flight alerts, and more!